sensor_id;sensor_type;location;lat;lon;timestamp;P1;durP1;ratioP1;P2;durP2;ratioP2
35306;SDS011;21420;52.196;21.416;2023-07-20T00:01:51;3.80;;;2.50;;
35306;SDS011;21420;52.196;21.416;2023-07-20T00:04:17;3.60;;;2.00;;
35306;SDS011;21420;52.196;21.416;2023-07-20T00:06:44;3.40;;;2.60;;
35306;SDS011;21420;52.196;21.416;2023-07-20T00:09:12;3.40;;;2.40;;
35306;SDS011;21420;52.196;21.416;2023-07-20T00:11:39;3.20;;;2.50;;
35306;SDS011;21420;52.196;21.416;2023-07-20T00:14:06;5.00;;;2.40;;
35306;SDS011;21420;52.196;21.416;2023-07-20T00:16:33;5.70;;;2.80;;
35306;SDS011;21420;52.196;21.416;2023-07-20T00:18:59;6.60;;;2.30;;
35306;SDS011;21420;52.196;21.416;2023-07-20T00:21:26;4.20;;;2.30;;
35306;SDS011;21420;52.196;21.416;2023-07-20T00:23:53;4.10;;;2.90;;
35306;SDS011;21420;52.196;21.416;2023-07-20T00:26:20;4.90;;;2.40;;
35306;SDS011;21420;52.196;21.416;2023-07-20T00:28:50;5.60;;;3.10;;
35306;SDS011;21420;52.196;21.416;2023-07-20T00:31:18;6.50;;;3.50;;
35306;SDS011;21420;52.196;21.416;2023-07-20T00:33:45;7.30;;;3.30;;
35306;SDS011;21420;52.196;21.416;2023-07-20T00:36:12;4.50;;;2.80;;
35306;SDS011;21420;52.196;21.416;2023-07-20T00:38:42;5.10;;;3.30;;
35306;SDS011;21420;52.196;21.416;2023-07-20T00:41:09;8.50;;;3.70;;
35306;SDS011;21420;52.196;21.416;2023-07-20T00:43:35;5.00;;;3.20;;
35306;SDS011;21420;52.196;21.416;2023-07-20T00:46:02;6.40;;;3.60;;
35306;SDS011;21420;52.196;21.416;2023-07-20T00:48:30;5.70;;;3.80;;
35306;SDS011;21420;52.196;21.416;2023-07-20T00:50:58;5.80;;;3.60;;
35306;SDS011;21420;52.196;21.416;2023-07-20T00:53:28;7.10;;;4.10;;
35306;SDS011;21420;52.196;21.416;2023-07-20T00:55:55;7.00;;;3.80;;
35306;SDS011;21420;52.196;21.416;2023-07-20T00:58:22;9.20;;;4.20;;
35306;SDS011;21420;52.196;21.416;2023-07-20T01:00:49;6.00;;;3.50;;
35306;SDS011;21420;52.196;21.416;2023-07-20T01:03:18;5.20;;;3.90;;
35306;SDS011;21420;52.196;21.416;2023-07-20T01:05:48;6.20;;;5.00;;
35306;SDS011;21420;52.196;21.416;2023-07-20T01:11:23;11.70;;;5.20;;
35306;SDS011;21420;52.196;21.416;2023-07-20T01:14:13;7.60;;;3.80;;
35306;SDS011;21420;52.196;21.416;2023-07-20T01:16:40;5.90;;;3.70;;
35306;SDS011;21420;52.196;21.416;2023-07-20T01:19:07;5.60;;;3.40;;
35306;SDS011;21420;52.196;21.416;2023-07-20T01:24:29;5.20;;;3.00;;
35306;SDS011;21420;52.196;21.416;2023-07-20T01:32:34;5.80;;;3.40;;
35306;SDS011;21420;52.196;21.416;2023-07-20T01:35:02;5.30;;;3.00;;
35306;SDS011;21420;52.196;21.416;2023-07-20T01:37:33;6.00;;;3.10;;
35306;SDS011;21420;52.196;21.416;2023-07-20T01:40:00;9.30;;;3.20;;
35306;SDS011;21420;52.196;21.416;2023-07-20T01:42:28;7.30;;;3.70;;
35306;SDS011;21420;52.196;21.416;2023-07-20T01:44:55;7.20;;;3.20;;
35306;SDS011;21420;52.196;21.416;2023-07-20T01:47:23;4.30;;;2.80;;
35306;SDS011;21420;52.196;21.416;2023-07-20T01:49:50;4.90;;;3.10;;
35306;SDS011;21420;52.196;21.416;2023-07-20T01:52:16;7.00;;;3.70;;
35306;SDS011;21420;52.196;21.416;2023-07-20T01:54:43;7.90;;;3.30;;
35306;SDS011;21420;52.196;21.416;2023-07-20T01:57:10;3.60;;;3.10;;
35306;SDS011;21420;52.196;21.416;2023-07-20T01:59:37;4.90;;;3.60;;
35306;SDS011;21420;52.196;21.416;2023-07-20T02:02:03;7.70;;;3.10;;
35306;SDS011;21420;52.196;21.416;2023-07-20T02:04:30;5.30;;;3.10;;
35306;SDS011;21420;52.196;21.416;2023-07-20T02:06:57;6.60;;;2.90;;
35306;SDS011;21420;52.196;21.416;2023-07-20T02:09:24;4.00;;;2.80;;
35306;SDS011;21420;52.196;21.416;2023-07-20T02:11:50;2.90;;;2.60;;
35306;SDS011;21420;52.196;21.416;2023-07-20T02:14:19;3.60;;;2.90;;
35306;SDS011;21420;52.196;21.416;2023-07-20T02:16:53;3.80;;;2.40;;
35306;SDS011;21420;52.196;21.416;2023-07-20T02:21:55;5.10;;;2.60;;
35306;SDS011;21420;52.196;21.416;2023-07-20T02:24:22;4.20;;;2.80;;
35306;SDS011;21420;52.196;21.416;2023-07-20T02:26:49;7.60;;;3.70;;
35306;SDS011;21420;52.196;21.416;2023-07-20T02:29:15;5.40;;;3.00;;
35306;SDS011;21420;52.196;21.416;2023-07-20T02:31:42;4.80;;;3.20;;
35306;SDS011;21420;52.196;21.416;2023-07-20T02:34:09;6.90;;;3.30;;
35306;SDS011;21420;52.196;21.416;2023-07-20T02:36:36;6.80;;;3.40;;
35306;SDS011;21420;52.196;21.416;2023-07-20T02:39:03;6.20;;;3.20;;
35306;SDS011;21420;52.196;21.416;2023-07-20T02:41:33;5.90;;;2.90;;
35306;SDS011;21420;52.196;21.416;2023-07-20T02:44:00;4.60;;;2.50;;
35306;SDS011;21420;52.196;21.416;2023-07-20T02:46:28;4.30;;;2.80;;
35306;SDS011;21420;52.196;21.416;2023-07-20T02:48:57;6.30;;;3.20;;
35306;SDS011;21420;52.196;21.416;2023-07-20T02:51:24;6.50;;;2.60;;
35306;SDS011;21420;52.196;21.416;2023-07-20T02:53:50;7.20;;;3.80;;
35306;SDS011;21420;52.196;21.416;2023-07-20T02:56:17;4.70;;;2.90;;
35306;SDS011;21420;52.196;21.416;2023-07-20T02:58:44;8.10;;;3.20;;
35306;SDS011;21420;52.196;21.416;2023-07-20T03:01:12;6.50;;;3.10;;
35306;SDS011;21420;52.196;21.416;2023-07-20T03:03:42;11.20;;;3.40;;
35306;SDS011;21420;52.196;21.416;2023-07-20T03:06:13;6.70;;;3.10;;
35306;SDS011;21420;52.196;21.416;2023-07-20T03:08:41;7.70;;;3.40;;
35306;SDS011;21420;52.196;21.416;2023-07-20T03:11:16;6.70;;;3.50;;
35306;SDS011;21420;52.196;21.416;2023-07-20T03:16:11;7.50;;;3.30;;
35306;SDS011;21420;52.196;21.416;2023-07-20T03:18:41;10.90;;;3.20;;
35306;SDS011;21420;52.196;21.416;2023-07-20T03:21:09;6.10;;;3.00;;
35306;SDS011;21420;52.196;21.416;2023-07-20T03:23:40;6.20;;;3.10;;
35306;SDS011;21420;52.196;21.416;2023-07-20T03:26:08;6.10;;;3.20;;
35306;SDS011;21420;52.196;21.416;2023-07-20T03:28:36;4.40;;;2.90;;
35306;SDS011;21420;52.196;21.416;2023-07-20T03:31:04;6.80;;;2.50;;
35306;SDS011;21420;52.196;21.416;2023-07-20T03:33:33;4.30;;;3.20;;
35306;SDS011;21420;52.196;21.416;2023-07-20T03:36:00;3.80;;;2.80;;
35306;SDS011;21420;52.196;21.416;2023-07-20T03:38:28;4.80;;;2.90;;
35306;SDS011;21420;52.196;21.416;2023-07-20T03:40:55;4.00;;;2.60;;
35306;SDS011;21420;52.196;21.416;2023-07-20T03:43:27;5.20;;;3.10;;
35306;SDS011;21420;52.196;21.416;2023-07-20T03:45:54;8.00;;;3.20;;
35306;SDS011;21420;52.196;21.416;2023-07-20T03:48:23;6.30;;;2.90;;
35306;SDS011;21420;52.196;21.416;2023-07-20T03:50:52;4.90;;;3.10;;
35306;SDS011;21420;52.196;21.416;2023-07-20T03:53:20;5.20;;;2.90;;
35306;SDS011;21420;52.196;21.416;2023-07-20T03:55:48;5.70;;;3.30;;
35306;SDS011;21420;52.196;21.416;2023-07-20T03:58:16;4.90;;;3.20;;
35306;SDS011;21420;52.196;21.416;2023-07-20T04:00:47;6.40;;;2.90;;
35306;SDS011;21420;52.196;21.416;2023-07-20T04:03:17;3.90;;;2.80;;
35306;SDS011;21420;52.196;21.416;2023-07-20T04:05:44;5.30;;;3.30;;
35306;SDS011;21420;52.196;21.416;2023-07-20T04:08:11;5.00;;;3.00;;
35306;SDS011;21420;52.196;21.416;2023-07-20T04:10:39;4.10;;;3.00;;
35306;SDS011;21420;52.196;21.416;2023-07-20T04:13:05;4.50;;;3.00;;
35306;SDS011;21420;52.196;21.416;2023-07-20T04:15:33;7.00;;;3.00;;
35306;SDS011;21420;52.196;21.416;2023-07-20T04:18:00;4.20;;;3.00;;
35306;SDS011;21420;52.196;21.416;2023-07-20T04:20:27;6.40;;;3.20;;
35306;SDS011;21420;52.196;21.416;2023-07-20T04:22:54;7.30;;;3.40;;
35306;SDS011;21420;52.196;21.416;2023-07-20T04:25:22;6.70;;;3.50;;
35306;SDS011;21420;52.196;21.416;2023-07-20T04:27:49;4.80;;;3.80;;
35306;SDS011;21420;52.196;21.416;2023-07-20T04:30:17;6.60;;;4.40;;
35306;SDS011;21420;52.196;21.416;2023-07-20T04:32:46;8.00;;;3.90;;
35306;SDS011;21420;52.196;21.416;2023-07-20T04:35:56;7.50;;;4.00;;
35306;SDS011;21420;52.196;21.416;2023-07-20T04:38:15;6.30;;;3.70;;
35306;SDS011;21420;52.196;21.416;2023-07-20T04:40:46;6.10;;;4.20;;
35306;SDS011;21420;52.196;21.416;2023-07-20T04:43:15;10.10;;;4.40;;
35306;SDS011;21420;52.196;21.416;2023-07-20T04:45:43;5.90;;;4.00;;
35306;SDS011;21420;52.196;21.416;2023-07-20T04:48:11;5.90;;;3.60;;
35306;SDS011;21420;52.196;21.416;2023-07-20T04:50:45;7.70;;;5.10;;
35306;SDS011;21420;52.196;21.416;2023-07-20T04:53:13;5.00;;;3.80;;
35306;SDS011;21420;52.196;21.416;2023-07-20T04:55:40;4.90;;;3.90;;
35306;SDS011;21420;52.196;21.416;2023-07-20T04:58:18;4.90;;;3.90;;
35306;SDS011;21420;52.196;21.416;2023-07-20T05:00:46;5.90;;;3.70;;
35306;SDS011;21420;52.196;21.416;2023-07-20T05:03:13;6.60;;;3.70;;
35306;SDS011;21420;52.196;21.416;2023-07-20T05:05:40;7.60;;;4.30;;
35306;SDS011;21420;52.196;21.416;2023-07-20T05:08:07;7.40;;;4.40;;
35306;SDS011;21420;52.196;21.416;2023-07-20T05:10:34;8.50;;;4.80;;
35306;SDS011;21420;52.196;21.416;2023-07-20T05:13:01;7.80;;;5.30;;
35306;SDS011;21420;52.196;21.416;2023-07-20T05:15:28;7.70;;;6.90;;
35306;SDS011;21420;52.196;21.416;2023-07-20T05:17:56;9.70;;;5.70;;
35306;SDS011;21420;52.196;21.416;2023-07-20T05:20:23;8.40;;;6.60;;
35306;SDS011;21420;52.196;21.416;2023-07-20T05:22:49;10.00;;;7.00;;
35306;SDS011;21420;52.196;21.416;2023-07-20T05:25:16;8.40;;;7.10;;
35306;SDS011;21420;52.196;21.416;2023-07-20T05:27:44;6.60;;;4.50;;
35306;SDS011;21420;52.196;21.416;2023-07-20T05:30:12;8.20;;;4.60;;
35306;SDS011;21420;52.196;21.416;2023-07-20T05:32:39;6.50;;;4.20;;
35306;SDS011;21420;52.196;21.416;2023-07-20T05:35:06;5.90;;;4.20;;
35306;SDS011;21420;52.196;21.416;2023-07-20T05:37:34;4.90;;;3.80;;
35306;SDS011;21420;52.196;21.416;2023-07-20T05:40:01;4.40;;;3.80;;
35306;SDS011;21420;52.196;21.416;2023-07-20T05:42:28;4.80;;;3.80;;
35306;SDS011;21420;52.196;21.416;2023-07-20T05:44:54;5.90;;;3.70;;
35306;SDS011;21420;52.196;21.416;2023-07-20T05:47:21;5.80;;;3.70;;
35306;SDS011;21420;52.196;21.416;2023-07-20T05:49:48;6.40;;;3.80;;
35306;SDS011;21420;52.196;21.416;2023-07-20T05:52:15;4.60;;;4.10;;
35306;SDS011;21420;52.196;21.416;2023-07-20T05:54:42;4.40;;;3.30;;
35306;SDS011;21420;52.196;21.416;2023-07-20T05:57:08;6.10;;;4.60;;
35306;SDS011;21420;52.196;21.416;2023-07-20T05:59:35;8.50;;;4.70;;
35306;SDS011;21420;52.196;21.416;2023-07-20T06:02:03;6.50;;;4.50;;
35306;SDS011;21420;52.196;21.416;2023-07-20T06:04:30;6.00;;;3.80;;
35306;SDS011;21420;52.196;21.416;2023-07-20T06:06:56;5.00;;;3.80;;
35306;SDS011;21420;52.196;21.416;2023-07-20T06:09:23;5.30;;;3.60;;
35306;SDS011;21420;52.196;21.416;2023-07-20T06:11:50;6.30;;;4.20;;
35306;SDS011;21420;52.196;21.416;2023-07-20T06:14:16;6.70;;;3.70;;
35306;SDS011;21420;52.196;21.416;2023-07-20T06:16:44;6.30;;;3.80;;
35306;SDS011;21420;52.196;21.416;2023-07-20T06:19:11;5.80;;;3.50;;
35306;SDS011;21420;52.196;21.416;2023-07-20T06:21:38;3.80;;;3.10;;
35306;SDS011;21420;52.196;21.416;2023-07-20T06:24:05;4.80;;;3.60;;
35306;SDS011;21420;52.196;21.416;2023-07-20T06:26:32;5.60;;;3.60;;
35306;SDS011;21420;52.196;21.416;2023-07-20T06:29:05;5.80;;;3.30;;
35306;SDS011;21420;52.196;21.416;2023-07-20T06:31:38;5.40;;;4.00;;
35306;SDS011;21420;52.196;21.416;2023-07-20T06:34:05;6.80;;;4.10;;
35306;SDS011;21420;52.196;21.416;2023-07-20T06:36:32;8.00;;;4.00;;
35306;SDS011;21420;52.196;21.416;2023-07-20T06:38:59;6.10;;;3.80;;
35306;SDS011;21420;52.196;21.416;2023-07-20T06:41:29;5.60;;;3.70;;
35306;SDS011;21420;52.196;21.416;2023-07-20T06:43:58;7.70;;;3.80;;
35306;SDS011;21420;52.196;21.416;2023-07-20T06:46:26;6.50;;;3.80;;
35306;SDS011;21420;52.196;21.416;2023-07-20T06:48:53;7.90;;;4.10;;
35306;SDS011;21420;52.196;21.416;2023-07-20T06:51:23;4.40;;;4.00;;
35306;SDS011;21420;52.196;21.416;2023-07-20T06:53:52;5.00;;;3.30;;
35306;SDS011;21420;52.196;21.416;2023-07-20T06:56:18;5.70;;;3.20;;
35306;SDS011;21420;52.196;21.416;2023-07-20T06:58:49;5.10;;;3.40;;
35306;SDS011;21420;52.196;21.416;2023-07-20T07:01:16;5.50;;;3.60;;
35306;SDS011;21420;52.196;21.416;2023-07-20T07:03:43;4.40;;;3.50;;
35306;SDS011;21420;52.196;21.416;2023-07-20T07:06:10;5.80;;;3.50;;
35306;SDS011;21420;52.196;21.416;2023-07-20T07:08:37;5.10;;;3.40;;
35306;SDS011;21420;52.196;21.416;2023-07-20T07:11:04;4.10;;;3.20;;
35306;SDS011;21420;52.196;21.416;2023-07-20T07:13:32;3.70;;;3.40;;
35306;SDS011;21420;52.196;21.416;2023-07-20T07:15:58;5.80;;;3.60;;
35306;SDS011;21420;52.196;21.416;2023-07-20T07:18:25;5.90;;;2.90;;
35306;SDS011;21420;52.196;21.416;2023-07-20T07:20:53;4.60;;;3.40;;
35306;SDS011;21420;52.196;21.416;2023-07-20T07:23:20;4.70;;;3.80;;
35306;SDS011;21420;52.196;21.416;2023-07-20T07:25:47;3.90;;;3.40;;
35306;SDS011;21420;52.196;21.416;2023-07-20T07:28:14;5.20;;;3.30;;
35306;SDS011;21420;52.196;21.416;2023-07-20T07:30:41;4.70;;;3.30;;
35306;SDS011;21420;52.196;21.416;2023-07-20T07:33:08;4.40;;;3.20;;
35306;SDS011;21420;52.196;21.416;2023-07-20T07:35:36;5.10;;;4.00;;
35306;SDS011;21420;52.196;21.416;2023-07-20T07:38:03;3.60;;;2.80;;
35306;SDS011;21420;52.196;21.416;2023-07-20T07:40:53;5.20;;;3.90;;
35306;SDS011;21420;52.196;21.416;2023-07-20T07:43:20;9.50;;;3.60;;
35306;SDS011;21420;52.196;21.416;2023-07-20T07:45:47;4.20;;;2.70;;
35306;SDS011;21420;52.196;21.416;2023-07-20T07:48:14;6.30;;;4.60;;
35306;SDS011;21420;52.196;21.416;2023-07-20T07:50:41;4.30;;;3.00;;
35306;SDS011;21420;52.196;21.416;2023-07-20T07:53:08;6.80;;;4.20;;
35306;SDS011;21420;52.196;21.416;2023-07-20T07:55:36;7.40;;;4.60;;
35306;SDS011;21420;52.196;21.416;2023-07-20T07:58:03;4.80;;;3.30;;
35306;SDS011;21420;52.196;21.416;2023-07-20T08:00:30;5.90;;;3.60;;
35306;SDS011;21420;52.196;21.416;2023-07-20T08:02:57;5.40;;;4.50;;
35306;SDS011;21420;52.196;21.416;2023-07-20T08:05:24;5.70;;;3.40;;
35306;SDS011;21420;52.196;21.416;2023-07-20T08:07:51;5.90;;;4.60;;
35306;SDS011;21420;52.196;21.416;2023-07-20T08:10:18;4.60;;;3.50;;
35306;SDS011;21420;52.196;21.416;2023-07-20T08:12:45;6.10;;;4.60;;
35306;SDS011;21420;52.196;21.416;2023-07-20T08:15:12;9.20;;;5.60;;
35306;SDS011;21420;52.196;21.416;2023-07-20T08:17:41;8.20;;;4.00;;
35306;SDS011;21420;52.196;21.416;2023-07-20T08:20:13;5.70;;;4.40;;
35306;SDS011;21420;52.196;21.416;2023-07-20T08:22:40;7.40;;;4.00;;
35306;SDS011;21420;52.196;21.416;2023-07-20T08:25:07;8.90;;;4.80;;
35306;SDS011;21420;52.196;21.416;2023-07-20T08:27:36;5.40;;;4.30;;
35306;SDS011;21420;52.196;21.416;2023-07-20T08:30:04;6.10;;;5.20;;
35306;SDS011;21420;52.196;21.416;2023-07-20T08:32:32;9.00;;;4.30;;
35306;SDS011;21420;52.196;21.416;2023-07-20T08:34:59;7.00;;;4.40;;
35306;SDS011;21420;52.196;21.416;2023-07-20T08:37:26;9.40;;;4.70;;
35306;SDS011;21420;52.196;21.416;2023-07-20T08:39:53;8.00;;;4.70;;
35306;SDS011;21420;52.196;21.416;2023-07-20T08:42:20;7.40;;;5.60;;
35306;SDS011;21420;52.196;21.416;2023-07-20T08:44:49;6.10;;;5.20;;
35306;SDS011;21420;52.196;21.416;2023-07-20T08:47:19;7.20;;;5.30;;
35306;SDS011;21420;52.196;21.416;2023-07-20T08:49:50;6.60;;;4.30;;
35306;SDS011;21420;52.196;21.416;2023-07-20T08:52:17;6.90;;;5.20;;
35306;SDS011;21420;52.196;21.416;2023-07-20T08:54:44;6.60;;;5.30;;
35306;SDS011;21420;52.196;21.416;2023-07-20T08:57:11;6.30;;;5.20;;
35306;SDS011;21420;52.196;21.416;2023-07-20T08:59:41;8.10;;;4.80;;
35306;SDS011;21420;52.196;21.416;2023-07-20T09:02:08;6.00;;;5.00;;
35306;SDS011;21420;52.196;21.416;2023-07-20T09:04:45;6.20;;;5.00;;
35306;SDS011;21420;52.196;21.416;2023-07-20T09:07:13;8.30;;;5.50;;
35306;SDS011;21420;52.196;21.416;2023-07-20T09:09:41;8.10;;;6.20;;
35306;SDS011;21420;52.196;21.416;2023-07-20T09:12:14;6.50;;;4.60;;
35306;SDS011;21420;52.196;21.416;2023-07-20T09:14:43;7.90;;;6.10;;
35306;SDS011;21420;52.196;21.416;2023-07-20T09:17:13;8.10;;;5.60;;
35306;SDS011;21420;52.196;21.416;2023-07-20T09:19:47;7.40;;;5.30;;
35306;SDS011;21420;52.196;21.416;2023-07-20T09:22:15;7.10;;;6.40;;
35306;SDS011;21420;52.196;21.416;2023-07-20T09:24:42;7.10;;;5.40;;
35306;SDS011;21420;52.196;21.416;2023-07-20T09:27:10;5.20;;;4.70;;
35306;SDS011;21420;52.196;21.416;2023-07-20T09:29:47;9.00;;;6.00;;
35306;SDS011;21420;52.196;21.416;2023-07-20T09:34:50;5.90;;;5.30;;
35306;SDS011;21420;52.196;21.416;2023-07-20T09:37:22;7.00;;;6.20;;
35306;SDS011;21420;52.196;21.416;2023-07-20T09:39:51;5.60;;;4.80;;
35306;SDS011;21420;52.196;21.416;2023-07-20T09:42:22;5.50;;;4.70;;
35306;SDS011;21420;52.196;21.416;2023-07-20T09:44:54;7.90;;;5.00;;
35306;SDS011;21420;52.196;21.416;2023-07-20T09:47:23;6.70;;;5.70;;
35306;SDS011;21420;52.196;21.416;2023-07-20T09:49:57;5.70;;;5.10;;
35306;SDS011;21420;52.196;21.416;2023-07-20T09:52:29;7.40;;;5.70;;
35306;SDS011;21420;52.196;21.416;2023-07-20T09:57:26;7.00;;;5.20;;
35306;SDS011;21420;52.196;21.416;2023-07-20T09:59:53;5.80;;;5.30;;
35306;SDS011;21420;52.196;21.416;2023-07-20T10:02:21;6.60;;;5.30;;
35306;SDS011;21420;52.196;21.416;2023-07-20T10:04:52;5.90;;;5.30;;
35306;SDS011;21420;52.196;21.416;2023-07-20T10:07:22;7.00;;;5.70;;
35306;SDS011;21420;52.196;21.416;2023-07-20T10:09:53;6.70;;;5.10;;
35306;SDS011;21420;52.196;21.416;2023-07-20T10:12:26;9.30;;;5.50;;
35306;SDS011;21420;52.196;21.416;2023-07-20T10:14:57;5.60;;;4.50;;
35306;SDS011;21420;52.196;21.416;2023-07-20T10:17:31;7.30;;;4.80;;
35306;SDS011;21420;52.196;21.416;2023-07-20T10:19:58;7.50;;;4.90;;
35306;SDS011;21420;52.196;21.416;2023-07-20T10:22:30;5.30;;;3.20;;
35306;SDS011;21420;52.196;21.416;2023-07-20T10:25:07;4.00;;;3.20;;
35306;SDS011;21420;52.196;21.416;2023-07-20T10:27:35;5.60;;;4.50;;
35306;SDS011;21420;52.196;21.416;2023-07-20T10:30:03;3.00;;;2.70;;
35306;SDS011;21420;52.196;21.416;2023-07-20T10:32:32;4.20;;;3.30;;
35306;SDS011;21420;52.196;21.416;2023-07-20T10:35:00;3.70;;;3.20;;
35306;SDS011;21420;52.196;21.416;2023-07-20T10:37:46;4.90;;;2.80;;
35306;SDS011;21420;52.196;21.416;2023-07-20T10:43:11;2.90;;;2.60;;
35306;SDS011;21420;52.196;21.416;2023-07-20T10:45:51;4.20;;;3.20;;
35306;SDS011;21420;52.196;21.416;2023-07-20T10:48:21;3.40;;;2.70;;
35306;SDS011;21420;52.196;21.416;2023-07-20T10:53:36;4.50;;;2.60;;
35306;SDS011;21420;52.196;21.416;2023-07-20T10:56:07;2.70;;;2.50;;
35306;SDS011;21420;52.196;21.416;2023-07-20T10:58:37;2.80;;;2.50;;
35306;SDS011;21420;52.196;21.416;2023-07-20T11:01:04;3.10;;;2.40;;
35306;SDS011;21420;52.196;21.416;2023-07-20T11:11:46;3.70;;;2.10;;
35306;SDS011;21420;52.196;21.416;2023-07-20T11:14:22;4.80;;;2.90;;
35306;SDS011;21420;52.196;21.416;2023-07-20T11:16:50;2.50;;;1.90;;
35306;SDS011;21420;52.196;21.416;2023-07-20T11:21:50;3.10;;;2.00;;
35306;SDS011;21420;52.196;21.416;2023-07-20T11:24:30;3.00;;;1.90;;
35306;SDS011;21420;52.196;21.416;2023-07-20T11:26:58;2.00;;;1.80;;
35306;SDS011;21420;52.196;21.416;2023-07-20T11:29:25;2.50;;;1.70;;
35306;SDS011;21420;52.196;21.416;2023-07-20T11:31:56;1.70;;;1.60;;
35306;SDS011;21420;52.196;21.416;2023-07-20T11:34:25;3.00;;;2.20;;
35306;SDS011;21420;52.196;21.416;2023-07-20T11:36:54;2.40;;;1.70;;
35306;SDS011;21420;52.196;21.416;2023-07-20T11:39:24;2.60;;;1.80;;
35306;SDS011;21420;52.196;21.416;2023-07-20T11:41:57;5.80;;;2.60;;
35306;SDS011;21420;52.196;21.416;2023-07-20T11:44:28;3.90;;;2.20;;
35306;SDS011;21420;52.196;21.416;2023-07-20T11:49:34;5.40;;;2.20;;
35306;SDS011;21420;52.196;21.416;2023-07-20T11:52:04;2.50;;;2.00;;
35306;SDS011;21420;52.196;21.416;2023-07-20T11:54:36;2.30;;;1.90;;
35306;SDS011;21420;52.196;21.416;2023-07-20T11:57:05;2.90;;;1.90;;
35306;SDS011;21420;52.196;21.416;2023-07-20T11:59:33;2.10;;;1.90;;
35306;SDS011;21420;52.196;21.416;2023-07-20T12:02:03;2.90;;;1.90;;
35306;SDS011;21420;52.196;21.416;2023-07-20T12:04:31;2.70;;;1.90;;
35306;SDS011;21420;52.196;21.416;2023-07-20T12:06:59;3.30;;;1.60;;
35306;SDS011;21420;52.196;21.416;2023-07-20T12:09:26;3.90;;;1.80;;
35306;SDS011;21420;52.196;21.416;2023-07-20T12:12:13;2.20;;;1.90;;
35306;SDS011;21420;52.196;21.416;2023-07-20T12:14:40;3.20;;;1.80;;
35306;SDS011;21420;52.196;21.416;2023-07-20T12:17:08;2.10;;;1.60;;
35306;SDS011;21420;52.196;21.416;2023-07-20T12:19:38;1.70;;;1.60;;
35306;SDS011;21420;52.196;21.416;2023-07-20T12:22:06;1.50;;;1.20;;
35306;SDS011;21420;52.196;21.416;2023-07-20T12:24:34;1.40;;;1.30;;
35306;SDS011;21420;52.196;21.416;2023-07-20T12:27:01;1.40;;;1.20;;
35306;SDS011;21420;52.196;21.416;2023-07-20T12:29:30;1.30;;;1.20;;
35306;SDS011;21420;52.196;21.416;2023-07-20T12:31:58;1.80;;;1.40;;
35306;SDS011;21420;52.196;21.416;2023-07-20T12:34:25;2.50;;;1.20;;
35306;SDS011;21420;52.196;21.416;2023-07-20T12:36:52;2.40;;;1.40;;
35306;SDS011;21420;52.196;21.416;2023-07-20T12:39:19;1.90;;;1.40;;
35306;SDS011;21420;52.196;21.416;2023-07-20T12:41:45;1.60;;;1.10;;
35306;SDS011;21420;52.196;21.416;2023-07-20T12:44:12;1.30;;;1.20;;
35306;SDS011;21420;52.196;21.416;2023-07-20T12:46:39;2.40;;;1.20;;
35306;SDS011;21420;52.196;21.416;2023-07-20T12:49:06;1.40;;;1.30;;
35306;SDS011;21420;52.196;21.416;2023-07-20T12:51:33;4.60;;;1.50;;
35306;SDS011;21420;52.196;21.416;2023-07-20T12:54:00;5.30;;;2.10;;
35306;SDS011;21420;52.196;21.416;2023-07-20T12:56:27;3.00;;;1.90;;
35306;SDS011;21420;52.196;21.416;2023-07-20T12:58:57;3.60;;;1.60;;
35306;SDS011;21420;52.196;21.416;2023-07-20T13:01:24;3.90;;;1.80;;
35306;SDS011;21420;52.196;21.416;2023-07-20T13:03:51;3.60;;;1.60;;
35306;SDS011;21420;52.196;21.416;2023-07-20T13:08:51;1.30;;;1.20;;
35306;SDS011;21420;52.196;21.416;2023-07-20T13:11:22;1.70;;;1.30;;
35306;SDS011;21420;52.196;21.416;2023-07-20T13:13:49;2.40;;;1.20;;
35306;SDS011;21420;52.196;21.416;2023-07-20T13:16:16;2.10;;;1.40;;
35306;SDS011;21420;52.196;21.416;2023-07-20T13:18:43;1.50;;;1.30;;
35306;SDS011;21420;52.196;21.416;2023-07-20T13:21:10;3.90;;;1.10;;
35306;SDS011;21420;52.196;21.416;2023-07-20T13:23:38;2.10;;;1.40;;
35306;SDS011;21420;52.196;21.416;2023-07-20T13:26:05;1.30;;;1.10;;
35306;SDS011;21420;52.196;21.416;2023-07-20T13:28:32;3.50;;;1.50;;
35306;SDS011;21420;52.196;21.416;2023-07-20T13:31:00;2.50;;;1.40;;
35306;SDS011;21420;52.196;21.416;2023-07-20T13:33:26;1.20;;;1.10;;
35306;SDS011;21420;52.196;21.416;2023-07-20T13:35:54;3.10;;;1.50;;
35306;SDS011;21420;52.196;21.416;2023-07-20T13:38:21;1.30;;;1.20;;
35306;SDS011;21420;52.196;21.416;2023-07-20T13:40:49;1.70;;;1.20;;
35306;SDS011;21420;52.196;21.416;2023-07-20T13:43:15;6.30;;;3.70;;
35306;SDS011;21420;52.196;21.416;2023-07-20T13:45:42;5.10;;;1.90;;
35306;SDS011;21420;52.196;21.416;2023-07-20T13:48:09;2.10;;;1.30;;
35306;SDS011;21420;52.196;21.416;2023-07-20T13:50:36;1.40;;;1.30;;
35306;SDS011;21420;52.196;21.416;2023-07-20T13:53:08;2.10;;;1.40;;
35306;SDS011;21420;52.196;21.416;2023-07-20T13:55:37;1.30;;;1.20;;
35306;SDS011;21420;52.196;21.416;2023-07-20T13:58:07;2.80;;;1.30;;
35306;SDS011;21420;52.196;21.416;2023-07-20T14:00:38;2.90;;;1.30;;
35306;SDS011;21420;52.196;21.416;2023-07-20T14:03:05;1.40;;;1.30;;
35306;SDS011;21420;52.196;21.416;2023-07-20T14:08:05;2.20;;;1.50;;
35306;SDS011;21420;52.196;21.416;2023-07-20T14:10:32;1.80;;;1.50;;
35306;SDS011;21420;52.196;21.416;2023-07-20T14:12:59;2.50;;;1.50;;
35306;SDS011;21420;52.196;21.416;2023-07-20T14:15:26;2.40;;;1.80;;
35306;SDS011;21420;52.196;21.416;2023-07-20T14:17:53;2.50;;;1.50;;
35306;SDS011;21420;52.196;21.416;2023-07-20T14:20:20;1.80;;;1.60;;
35306;SDS011;21420;52.196;21.416;2023-07-20T14:22:48;2.20;;;1.50;;
35306;SDS011;21420;52.196;21.416;2023-07-20T14:25:17;4.60;;;1.30;;
35306;SDS011;21420;52.196;21.416;2023-07-20T14:27:45;3.50;;;2.40;;
35306;SDS011;21420;52.196;21.416;2023-07-20T14:30:12;2.90;;;1.70;;
35306;SDS011;21420;52.196;21.416;2023-07-20T14:32:40;1.50;;;1.40;;
35306;SDS011;21420;52.196;21.416;2023-07-20T14:35:08;1.40;;;1.20;;
35306;SDS011;21420;52.196;21.416;2023-07-20T14:37:36;1.30;;;1.00;;
35306;SDS011;21420;52.196;21.416;2023-07-20T14:40:03;1.20;;;1.10;;
35306;SDS011;21420;52.196;21.416;2023-07-20T14:42:34;1.50;;;1.40;;
35306;SDS011;21420;52.196;21.416;2023-07-20T14:45:01;2.20;;;1.40;;
35306;SDS011;21420;52.196;21.416;2023-07-20T14:47:29;2.80;;;1.40;;
35306;SDS011;21420;52.196;21.416;2023-07-20T14:49:59;1.60;;;1.50;;
35306;SDS011;21420;52.196;21.416;2023-07-20T14:52:26;2.10;;;1.80;;
35306;SDS011;21420;52.196;21.416;2023-07-20T14:54:55;3.00;;;1.10;;
35306;SDS011;21420;52.196;21.416;2023-07-20T14:57:22;2.30;;;2.00;;
35306;SDS011;21420;52.196;21.416;2023-07-20T14:59:50;2.00;;;1.80;;
35306;SDS011;21420;52.196;21.416;2023-07-20T15:02:16;4.40;;;2.60;;
35306;SDS011;21420;52.196;21.416;2023-07-20T15:04:49;2.50;;;2.20;;
35306;SDS011;21420;52.196;21.416;2023-07-20T15:07:18;3.60;;;2.30;;
35306;SDS011;21420;52.196;21.416;2023-07-20T15:09:46;4.40;;;1.80;;
35306;SDS011;21420;52.196;21.416;2023-07-20T15:12:13;3.60;;;1.50;;
35306;SDS011;21420;52.196;21.416;2023-07-20T15:14:40;2.20;;;1.90;;
35306;SDS011;21420;52.196;21.416;2023-07-20T15:17:11;2.20;;;1.80;;
35306;SDS011;21420;52.196;21.416;2023-07-20T15:22:05;4.10;;;2.30;;
35306;SDS011;21420;52.196;21.416;2023-07-20T15:24:33;3.30;;;1.80;;
35306;SDS011;21420;52.196;21.416;2023-07-20T15:27:01;2.50;;;1.50;;
35306;SDS011;21420;52.196;21.416;2023-07-20T15:29:34;2.50;;;1.60;;